createdAt,value
2018-07-16T04:00:39.119Z,996.00
2018-07-16T04:01:39.104Z,1032.00
2018-07-16T04:02:39.098Z,1076.00
2018-07-16T04:03:39.069Z,1120.00
2018-07-16T04:04:39.087Z,1160.00
2018-07-16T04:05:39.097Z,1204.00
2018-07-16T04:06:39.033Z,1244.00
2018-07-16T04:07:39.022Z,1292.00
2018-07-16T04:08:39.034Z,1336.00
2018-07-16T04:09:39.015Z,1380.00
2018-07-16T04:10:39.014Z,1424.00
2018-07-16T04:11:38.971Z,1464.00
2018-07-16T04:12:38.964Z,1500.00
2018-07-16T04:13:38.980Z,1544.00
2018-07-16T04:14:38.940Z,1580.00
2018-07-16T04:15:38.942Z,1624.00
2018-07-16T04:16:38.919Z,1664.00
2018-07-16T04:17:38.906Z,1708.00
2018-07-16T04:18:38.894Z,1744.00
2018-07-16T04:19:38.889Z,1784.00
2018-07-16T04:20:38.885Z,1824.00
2018-07-16T04:21:38.877Z,1864.00
2018-07-16T04:22:38.853Z,1904.00
2018-07-16T04:23:38.845Z,1948.00
2018-07-16T04:24:38.832Z,1988.00
2018-07-16T04:25:38.836Z,2020.00
2018-07-16T04:26:38.846Z,2052.00
2018-07-16T04:27:38.834Z,2080.00
2018-07-16T04:28:38.788Z,2112.00
2018-07-16T04:29:38.777Z,2136.00
2018-07-16T04:30:38.806Z,2164.00
2018-07-16T04:31:38.749Z,2188.00
2018-07-16T04:32:38.743Z,2220.00
2018-07-16T04:33:38.731Z,2256.00
2018-07-16T04:34:38.724Z,2288.00
2018-07-16T04:35:38.709Z,2316.00
2018-07-16T04:36:38.709Z,2340.00
2018-07-16T04:37:38.686Z,2364.00
2018-07-16T04:38:38.670Z,2392.00
2018-07-16T04:39:38.669Z,2404.00
2018-07-16T04:40:38.650Z,2404.00
2018-07-16T04:41:38.649Z,2384.00
2018-07-16T04:42:38.630Z,2340.00
2018-07-16T04:43:38.621Z,2288.00
2018-07-16T04:44:38.621Z,2216.00
2018-07-16T04:45:38.597Z,2164.00
2018-07-16T04:46:38.599Z,2136.00
2018-07-16T04:47:38.584Z,2124.00
2018-07-16T04:48:38.570Z,2116.00
2018-07-16T04:49:38.556Z,2116.00
2018-07-16T04:50:38.542Z,2140.00
2018-07-16T04:51:38.541Z,2156.00
2018-07-16T04:52:38.555Z,2176.00
2018-07-16T04:53:38.522Z,2216.00
2018-07-16T04:54:38.500Z,2272.00
2018-07-16T04:55:38.488Z,2344.00
2018-07-16T04:56:38.483Z,2428.00
2018-07-16T04:57:38.467Z,2524.00
2018-07-16T04:58:38.458Z,2644.00
2018-07-16T04:59:38.441Z,2792.00
2018-07-16T05:00:38.430Z,2948.00
2018-07-16T05:01:38.433Z,3092.00
2018-07-16T05:02:38.406Z,3224.00
2018-07-16T05:03:38.399Z,3348.00
2018-07-16T05:04:38.385Z,3460.00
2018-07-16T05:05:38.379Z,3568.00
2018-07-16T05:06:38.372Z,3684.00
2018-07-16T05:07:38.360Z,3820.00
2018-07-16T05:08:38.340Z,3976.00
2018-07-16T05:09:38.340Z,4148.00
2018-07-16T05:10:38.317Z,4332.00
2018-07-16T05:11:38.319Z,4508.00
2018-07-16T05:12:38.295Z,4668.00
2018-07-16T05:13:38.284Z,4812.00
2018-07-16T05:14:38.278Z,4940.00
2018-07-16T05:15:38.296Z,5040.00
2018-07-16T05:16:38.268Z,5116.00
2018-07-16T05:17:38.239Z,5176.00
2018-07-16T05:18:38.233Z,5196.00
2018-07-16T05:19:38.221Z,5192.00
2018-07-16T05:20:38.217Z,5152.00
2018-07-16T05:21:38.211Z,5084.00
2018-07-16T05:22:38.189Z,5000.00
2018-07-16T05:23:38.173Z,4944.00
2018-07-16T05:24:38.169Z,4948.00
2018-07-16T05:25:38.160Z,4992.00
2018-07-16T05:26:38.162Z,5052.00
2018-07-16T05:27:38.129Z,5100.00
2018-07-16T05:28:38.123Z,5136.00
2018-07-16T05:29:38.107Z,5176.00
2018-07-16T05:30:38.097Z,5240.00
2018-07-16T05:31:38.117Z,5312.00
2018-07-16T05:32:38.310Z,5392.00
2018-07-16T05:33:38.063Z,5484.00
2018-07-16T05:34:38.054Z,5592.00
2018-07-16T05:35:38.045Z,5692.00
2018-07-16T05:36:38.046Z,5772.00
2018-07-16T05:37:38.024Z,5816.00
2018-07-16T05:38:38.015Z,5844.00
2018-07-16T05:39:38.000Z,5864.00
2018-07-16T05:40:37.988Z,5880.00
2018-07-16T05:41:37.986Z,5912.00
2018-07-16T05:42:37.966Z,5948.00
2018-07-16T05:43:37.954Z,6000.00
2018-07-16T05:44:37.944Z,6060.00
2018-07-16T05:45:37.934Z,6132.00
2018-07-16T05:46:37.934Z,6204.00
2018-07-16T05:47:37.909Z,6276.00
2018-07-16T05:48:37.904Z,6360.00
2018-07-16T05:49:37.887Z,6436.00
2018-07-16T05:50:37.883Z,6500.00
2018-07-16T05:51:37.925Z,6576.00
2018-07-16T05:52:37.853Z,6660.00
2018-07-16T05:53:37.846Z,6752.00
2018-07-16T05:54:37.831Z,6848.00
2018-07-16T05:55:37.821Z,6920.00
2018-07-16T05:56:37.875Z,6984.00
2018-07-16T05:57:37.801Z,7036.00
2018-07-16T05:58:37.791Z,7104.00
2018-07-16T05:59:37.783Z,7176.00
2018-07-16T06:00:37.770Z,7268.00
2018-07-16T06:01:37.766Z,7400.00
2018-07-16T06:02:37.751Z,7592.00
2018-07-16T06:03:37.763Z,7872.00
2018-07-16T06:04:37.742Z,8236.00
2018-07-16T06:05:37.710Z,8896.00
2018-07-16T06:06:37.703Z,9620.00
2018-07-16T06:07:37.699Z,9904.00
2018-07-16T06:08:37.705Z,10064.00
2018-07-16T06:09:37.665Z,10364.00
2018-07-16T06:10:37.659Z,10952.00
2018-07-16T06:11:37.643Z,11420.00
2018-07-16T06:12:37.643Z,11760.00
2018-07-16T06:13:37.621Z,13384.00
2018-07-16T06:14:37.691Z,19232.00
2018-07-16T06:15:37.604Z,23392.00
2018-07-16T06:16:37.604Z,24064.00
2018-07-16T06:17:37.595Z,21664.00
2018-07-16T06:18:37.594Z,20512.00
2018-07-16T06:19:37.558Z,21248.00
2018-07-16T06:20:37.547Z,20608.00
2018-07-16T06:21:37.578Z,18016.00
2018-07-16T06:22:37.535Z,18080.00
2018-07-16T06:23:37.520Z,18912.00
2018-07-16T06:24:37.498Z,20032.00
2018-07-16T06:25:37.504Z,19136.00
2018-07-16T06:26:37.478Z,19008.00
2018-07-16T06:27:37.474Z,19808.00
2018-07-16T06:28:37.457Z,20000.00
2018-07-16T06:29:37.445Z,21344.00
2018-07-16T06:30:37.437Z,21728.00
2018-07-16T06:31:37.423Z,21312.00
2018-07-16T06:32:37.422Z,20832.00
2018-07-16T06:33:37.399Z,18464.00
2018-07-16T06:34:37.384Z,17408.00
2018-07-16T06:35:37.384Z,16416.00
2018-07-16T06:36:37.365Z,15904.00
2018-07-16T06:37:37.373Z,16768.00
2018-07-16T06:38:37.345Z,17312.00
2018-07-16T06:39:37.373Z,17248.00
2018-07-16T06:40:37.524Z,18176.00
2018-07-16T06:41:37.599Z,18432.00
2018-07-16T06:42:37.319Z,17024.00
2018-07-16T06:43:37.288Z,14860.00
2018-07-16T06:44:37.284Z,14000.00
2018-07-16T06:45:37.268Z,14064.00
2018-07-16T06:46:37.256Z,14176.00
2018-07-16T06:47:37.256Z,14088.00
2018-07-16T06:48:37.234Z,13920.00
2018-07-16T06:49:37.221Z,13624.00
2018-07-16T06:50:37.212Z,13572.00
2018-07-16T06:51:37.199Z,13688.00
2018-07-16T06:52:37.207Z,13732.00
2018-07-16T06:53:37.183Z,13780.00
2018-07-16T06:54:37.168Z,13820.00
2018-07-16T06:55:37.188Z,13952.00
2018-07-16T06:56:37.197Z,14252.00
2018-07-16T06:57:37.144Z,14452.00
2018-07-16T06:58:37.129Z,14656.00
2018-07-16T06:59:37.123Z,14792.00
2018-07-16T07:00:37.106Z,15488.00
2018-07-16T07:01:37.091Z,16416.00
2018-07-16T07:02:37.095Z,16896.00
2018-07-16T07:03:37.065Z,16896.00
2018-07-16T07:04:37.057Z,18496.00
2018-07-16T07:05:37.046Z,21344.00
2018-07-16T07:06:37.048Z,24384.00
2018-07-16T07:07:37.041Z,25920.00
2018-07-16T07:08:37.073Z,26208.00
2018-07-16T07:09:37.012Z,26208.00
2018-07-16T07:10:36.994Z,26848.00
2018-07-16T07:11:36.983Z,26720.00
2018-07-16T07:12:36.991Z,26848.00
2018-07-16T07:13:36.963Z,26880.00
2018-07-16T07:14:36.958Z,26560.00
2018-07-16T07:15:36.951Z,26688.00
2018-07-16T07:16:36.928Z,26464.00
2018-07-16T07:17:36.932Z,25888.00
2018-07-16T07:18:36.908Z,26016.00
2018-07-16T07:19:36.898Z,25568.00
2018-07-16T07:20:36.887Z,24832.00
2018-07-16T07:21:36.875Z,23968.00
2018-07-16T07:22:36.891Z,23488.00
2018-07-16T07:23:36.857Z,22784.00
2018-07-16T07:24:36.845Z,22400.00
2018-07-16T07:25:36.921Z,22016.00
2018-07-16T07:26:36.821Z,21920.00
2018-07-16T07:27:36.824Z,21760.00
2018-07-16T07:28:36.879Z,21472.00
2018-07-16T07:29:36.788Z,21152.00
2018-07-16T07:30:36.779Z,21120.00
2018-07-16T07:31:36.767Z,21184.00
2018-07-16T07:32:36.773Z,21408.00
2018-07-16T07:33:36.751Z,21632.00
2018-07-16T07:34:36.735Z,21568.00
2018-07-16T07:35:36.848Z,21632.00
2018-07-16T07:36:36.713Z,21696.00
2018-07-16T07:37:36.743Z,22240.00
2018-07-16T07:38:36.695Z,22368.00
2018-07-16T07:39:36.693Z,22496.00
2018-07-16T07:40:36.671Z,22784.00
2018-07-16T07:41:36.659Z,22912.00
2018-07-16T07:42:36.650Z,23136.00
2018-07-16T07:43:36.653Z,23104.00
2018-07-16T07:44:36.636Z,23168.00
2018-07-16T07:45:36.620Z,22656.00
2018-07-16T07:46:36.615Z,22688.00
2018-07-16T07:47:36.628Z,22528.00
2018-07-16T07:48:36.598Z,22496.00
2018-07-16T07:49:36.623Z,22432.00
2018-07-16T07:50:36.565Z,22304.00
2018-07-16T07:51:36.554Z,22304.00
2018-07-16T07:52:36.545Z,22400.00
2018-07-16T07:53:36.547Z,22240.00
2018-07-16T07:54:36.763Z,22144.00
2018-07-16T07:55:36.549Z,22208.00
2018-07-16T07:56:36.501Z,22432.00
2018-07-16T07:57:36.492Z,22592.00
2018-07-16T07:58:36.488Z,22944.00
2018-07-16T07:59:36.468Z,23200.00
2018-07-16T08:00:36.459Z,23072.00
2018-07-16T08:01:36.447Z,22880.00
2018-07-16T08:02:36.435Z,23232.00
2018-07-16T08:03:36.440Z,23456.00
2018-07-16T08:04:36.419Z,24032.00
2018-07-16T08:05:36.410Z,24480.00
2018-07-16T08:06:36.396Z,24320.00
2018-07-16T08:07:36.384Z,23520.00
2018-07-16T08:08:36.390Z,22368.00
2018-07-16T08:09:36.360Z,23456.00
2018-07-16T08:10:36.352Z,23520.00
2018-07-16T08:11:36.343Z,24192.00
2018-07-16T08:12:36.328Z,24576.00
2018-07-16T08:13:36.344Z,25632.00
2018-07-16T08:14:36.312Z,26240.00
2018-07-16T08:15:36.298Z,26624.00
2018-07-16T08:16:36.290Z,26624.00
2018-07-16T08:17:36.276Z,26144.00
2018-07-16T08:18:36.313Z,25536.00
2018-07-16T08:19:36.266Z,24512.00
2018-07-16T08:20:36.246Z,23872.00
2018-07-16T08:21:36.241Z,22400.00
2018-07-16T08:22:36.225Z,23200.00
2018-07-16T08:23:36.223Z,22368.00
2018-07-16T08:24:36.202Z,22560.00
2018-07-16T08:25:36.192Z,21760.00
2018-07-16T08:26:36.180Z,21344.00
2018-07-16T08:27:36.198Z,22560.00
2018-07-16T08:28:36.174Z,22784.00
2018-07-16T08:29:36.148Z,24640.00
2018-07-16T08:30:36.142Z,25568.00
2018-07-16T08:31:36.127Z,25088.00
2018-07-16T08:32:36.118Z,24992.00
2018-07-16T08:33:36.179Z,24640.00
2018-07-16T08:34:36.100Z,25824.00
2018-07-16T08:35:36.087Z,25408.00
2018-07-16T08:36:36.101Z,26368.00
2018-07-16T08:37:36.071Z,26080.00
2018-07-16T08:38:36.069Z,26368.00
2018-07-16T08:39:36.044Z,26912.00
2018-07-16T08:40:36.041Z,26464.00
2018-07-16T08:41:36.023Z,26688.00
2018-07-16T08:42:36.009Z,27968.00
2018-07-16T08:43:36.026Z,29600.00
2018-07-16T08:44:35.989Z,30016.00
2018-07-16T08:45:35.979Z,31456.00
2018-07-16T08:46:35.983Z,32096.00
2018-07-16T08:47:35.958Z,32480.00
2018-07-16T08:48:35.965Z,32608.00
2018-07-16T08:49:35.936Z,31648.00
2018-07-16T08:50:35.936Z,31776.00
2018-07-16T08:51:35.915Z,31616.00
2018-07-16T08:52:35.918Z,32352.00
2018-07-16T08:53:35.911Z,32864.00
2018-07-16T08:54:35.883Z,32608.00
2018-07-16T08:55:35.870Z,31840.00
2018-07-16T08:56:35.863Z,31296.00
2018-07-16T08:57:35.849Z,31712.00
2018-07-16T08:58:35.848Z,31232.00
2018-07-16T08:59:35.831Z,31264.00
2018-07-16T09:00:35.817Z,30464.00
2018-07-16T09:01:35.808Z,31200.00
2018-07-16T09:02:35.823Z,31040.00
2018-07-16T09:03:35.798Z,31072.00
2018-07-16T09:04:35.772Z,31808.00
2018-07-16T09:05:35.803Z,31904.00
2018-07-16T09:06:35.754Z,31872.00
2018-07-16T09:07:35.744Z,32320.00
2018-07-16T09:08:35.744Z,32096.00
2018-07-16T09:09:35.720Z,32864.00
2018-07-16T09:10:35.711Z,32288.00
2018-07-16T09:11:35.697Z,32800.00
2018-07-16T09:12:35.690Z,33536.00
2018-07-16T09:13:35.739Z,33984.00
2018-07-16T09:14:35.713Z,35040.00
2018-07-16T09:15:35.657Z,36544.00
2018-07-16T09:16:35.648Z,37696.00
2018-07-16T09:17:35.635Z,39040.00
2018-07-16T09:18:35.621Z,40448.00
2018-07-16T09:19:35.627Z,41312.00
2018-07-16T09:20:35.604Z,42016.00
2018-07-16T09:21:35.588Z,43168.00
2018-07-16T09:22:35.576Z,44544.00
2018-07-16T09:23:35.584Z,45216.00
2018-07-16T09:24:35.568Z,45984.00
2018-07-16T09:25:35.712Z,47712.00
2018-07-16T09:26:35.535Z,48224.00
2018-07-16T09:27:35.523Z,42048.00
2018-07-16T09:28:35.512Z,53184.00
2018-07-16T09:29:35.512Z,60352.00
2018-07-16T09:30:35.495Z,64896.00
2018-07-16T09:31:35.476Z,68256.00
2018-07-16T09:32:35.500Z,71904.00
2018-07-16T09:33:35.454Z,74880.00
2018-07-16T09:34:35.454Z,76544.00
2018-07-16T09:35:35.435Z,79168.00
2018-07-16T09:36:35.423Z,81984.00
2018-07-16T09:37:35.411Z,83008.00
2018-07-16T09:38:35.410Z,83520.00
2018-07-16T09:39:35.400Z,84704.00
2018-07-16T09:40:35.381Z,86816.00
2018-07-16T09:41:35.367Z,88768.00
2018-07-16T09:42:35.357Z,91488.00
2018-07-16T09:43:35.349Z,93056.00
2018-07-16T09:44:35.347Z,94592.00
2018-07-16T09:45:35.324Z,95904.00
2018-07-16T09:46:35.315Z,94784.00
2018-07-16T09:47:35.426Z,94240.00
2018-07-16T09:48:35.287Z,95424.00
2018-07-16T09:49:35.288Z,96576.00
2018-07-16T09:50:35.265Z,96384.00
2018-07-16T09:51:35.256Z,93760.00
2018-07-16T09:52:35.245Z,93696.00
2018-07-16T09:53:35.231Z,92000.00
2018-07-16T09:54:35.236Z,83808.00
2018-07-16T09:55:35.212Z,82496.00
2018-07-16T09:56:35.208Z,83488.00
2018-07-16T09:57:35.189Z,79104.00
2018-07-16T09:58:35.190Z,73536.00
2018-07-16T09:59:35.174Z,78336.00
2018-07-16T10:00:35.436Z,81504.00
2018-07-16T10:01:35.144Z,80032.00
2018-07-16T10:02:35.132Z,79968.00
2018-07-16T10:03:35.123Z,79808.00
2018-07-16T10:04:35.120Z,75360.00
2018-07-16T10:05:35.097Z,60896.00
2018-07-16T10:06:35.084Z,66528.00
2018-07-16T10:07:35.072Z,67968.00
2018-07-16T10:08:35.154Z,68192.00
2018-07-16T10:09:35.068Z,65888.00
2018-07-16T10:10:35.049Z,61024.00
2018-07-16T10:11:35.038Z,50304.00
2018-07-16T10:12:35.032Z,31808.00
2018-07-16T10:13:35.014Z,23296.00
2018-07-16T10:14:35.007Z,22016.00
2018-07-16T10:15:34.989Z,21312.00
2018-07-16T10:16:34.970Z,20896.00
2018-07-16T10:17:34.963Z,20608.00
2018-07-16T10:18:35.040Z,20480.00
2018-07-16T10:19:34.962Z,20352.00
2018-07-16T10:20:34.938Z,20416.00
2018-07-16T10:21:34.921Z,20480.00
2018-07-16T10:22:34.908Z,20480.00
2018-07-16T10:23:34.902Z,20544.00
2018-07-16T10:24:34.896Z,20416.00
2018-07-16T10:25:34.875Z,20256.00
2018-07-16T10:26:34.864Z,20064.00
2018-07-16T10:27:35.189Z,19872.00
2018-07-16T10:28:34.842Z,19680.00
2018-07-16T10:29:34.861Z,19552.00
2018-07-16T10:30:34.817Z,19392.00
2018-07-16T10:31:34.842Z,19264.00
2018-07-16T10:32:34.798Z,19104.00
2018-07-16T10:33:34.779Z,18912.00
2018-07-16T10:34:34.782Z,18720.00
2018-07-16T10:35:34.759Z,18624.00
2018-07-16T10:36:34.750Z,18528.00
2018-07-16T10:37:34.735Z,18464.00
2018-07-16T10:38:34.764Z,18432.00
2018-07-16T10:39:34.725Z,18432.00
2018-07-16T10:40:34.714Z,18368.00
2018-07-16T10:41:34.693Z,18272.00
2018-07-16T10:42:34.683Z,18208.00
2018-07-16T10:43:34.672Z,18080.00
2018-07-16T10:44:34.666Z,17760.00
2018-07-16T10:45:34.653Z,17184.00
2018-07-16T10:46:34.637Z,15864.00
2018-07-16T10:47:34.624Z,14824.00
2018-07-16T10:48:34.616Z,12976.00
2018-07-16T10:49:34.620Z,10388.00
2018-07-16T10:50:34.639Z,8280.00
2018-07-16T10:51:34.578Z,6948.00
2018-07-16T10:52:34.571Z,5988.00
2018-07-16T10:53:34.563Z,5120.00
2018-07-16T10:54:34.545Z,4464.00
2018-07-16T10:55:34.548Z,4120.00
2018-07-16T10:56:34.526Z,3904.00
2018-07-16T10:57:34.518Z,3748.00
2018-07-16T10:58:34.505Z,3612.00
2018-07-16T10:59:34.490Z,3488.00
2018-07-16T11:00:34.492Z,3272.00
2018-07-16T11:01:34.468Z,3168.00
2018-07-16T11:02:34.459Z,3108.00
2018-07-16T11:03:34.445Z,3096.00
2018-07-16T11:04:34.433Z,3156.00
2018-07-16T11:05:34.532Z,3392.00
2018-07-16T11:06:34.414Z,3612.00
2018-07-16T11:07:34.407Z,3912.00
2018-07-16T11:08:34.389Z,4448.00
2018-07-16T11:09:34.383Z,5068.00
2018-07-16T11:10:34.380Z,5432.00
2018-07-16T11:11:34.364Z,5860.00
2018-07-16T11:12:34.345Z,6352.00
2018-07-16T11:13:34.338Z,6828.00
2018-07-16T11:14:34.327Z,7160.00
2018-07-16T11:15:34.340Z,7076.00
2018-07-16T11:16:34.304Z,6900.00
2018-07-16T11:17:34.290Z,6908.00
2018-07-16T11:18:34.317Z,6940.00
2018-07-16T11:19:34.269Z,7040.00
2018-07-16T11:20:34.268Z,7108.00
2018-07-16T11:21:34.276Z,7012.00
2018-07-16T11:22:34.269Z,6916.00
2018-07-16T11:23:34.221Z,6804.00
2018-07-16T11:24:34.212Z,6700.00
2018-07-16T11:25:34.212Z,6640.00
2018-07-16T11:26:34.187Z,6420.00
2018-07-16T11:27:34.176Z,6244.00
2018-07-16T11:28:34.168Z,6296.00
2018-07-16T11:29:34.153Z,6508.00
2018-07-16T11:30:34.153Z,6880.00
2018-07-16T11:31:34.137Z,7300.00
2018-07-16T11:32:34.122Z,7644.00
2018-07-16T11:33:34.109Z,7796.00
2018-07-16T11:34:34.104Z,7796.00
2018-07-16T11:35:34.184Z,7736.00
2018-07-16T11:36:34.075Z,7624.00
2018-07-16T11:37:34.066Z,7504.00
2018-07-16T11:38:34.058Z,7392.00
2018-07-16T11:39:34.040Z,7268.00
2018-07-16T11:40:34.046Z,7140.00
2018-07-16T11:41:34.018Z,7016.00
2018-07-16T11:42:34.012Z,6872.00
2018-07-16T11:43:33.999Z,6736.00
2018-07-16T11:44:33.984Z,6584.00
2018-07-16T11:45:33.990Z,6432.00
2018-07-16T11:46:33.964Z,6284.00
2018-07-16T11:47:33.951Z,6144.00
2018-07-16T11:48:33.943Z,6004.00
2018-07-16T11:49:33.935Z,5884.00
2018-07-16T11:50:33.932Z,5776.00
2018-07-16T11:51:33.908Z,5704.00
2018-07-16T11:52:33.899Z,5616.00
2018-07-16T11:53:33.887Z,5528.00
2018-07-16T11:54:33.875Z,5428.00
2018-07-16T11:55:33.883Z,5344.00
2018-07-16T11:56:33.856Z,5256.00
2018-07-16T11:57:33.843Z,5160.00
2018-07-16T11:58:33.833Z,5048.00
2018-07-16T11:59:33.852Z,4952.00
2018-07-16T12:00:33.821Z,4872.00
2018-07-16T12:01:33.797Z,4796.00
2018-07-16T12:02:33.792Z,4712.00
2018-07-16T12:03:33.830Z,4636.00
2018-07-16T12:04:33.764Z,4540.00
2018-07-16T12:05:33.762Z,4456.00
2018-07-16T12:06:33.741Z,4372.00
2018-07-16T12:07:33.732Z,4296.00
2018-07-16T12:08:33.728Z,4216.00
2018-07-16T12:09:33.707Z,4148.00
2018-07-16T12:10:33.705Z,4088.00
2018-07-16T12:11:33.688Z,4040.00
2018-07-16T12:12:33.682Z,3992.00
2018-07-16T12:13:33.671Z,3952.00
2018-07-16T12:14:33.662Z,3908.00
2018-07-16T12:15:33.650Z,3872.00
2018-07-16T12:16:33.628Z,3840.00
2018-07-16T12:17:33.649Z,3812.00
2018-07-16T12:18:33.607Z,3796.00
2018-07-16T12:19:33.596Z,3780.00
2018-07-16T12:20:33.710Z,3776.00
2018-07-16T12:21:33.570Z,3780.00
2018-07-16T12:22:33.561Z,3780.00
2018-07-16T12:23:33.554Z,3780.00
2018-07-16T12:24:33.543Z,3776.00
2018-07-16T12:25:33.561Z,3776.00
2018-07-16T12:26:33.517Z,3780.00
2018-07-16T12:27:33.506Z,3788.00
2018-07-16T12:28:33.505Z,3804.00
2018-07-16T12:29:33.482Z,3824.00
2018-07-16T12:30:33.488Z,3844.00
2018-07-16T12:31:33.472Z,3868.00
2018-07-16T12:32:33.447Z,3888.00
2018-07-16T12:33:33.437Z,3912.00
2018-07-16T12:34:33.429Z,3932.00
2018-07-16T12:35:33.417Z,3952.00
2018-07-16T12:36:33.429Z,3980.00
2018-07-16T12:37:33.394Z,4004.00
2018-07-16T12:38:33.385Z,4036.00
2018-07-16T12:39:33.372Z,4068.00
2018-07-16T12:40:33.363Z,4124.00
2018-07-16T12:41:33.505Z,4176.00
2018-07-16T12:42:33.362Z,4240.00
2018-07-16T12:43:33.327Z,4316.00
2018-07-16T12:44:33.320Z,4396.00
2018-07-16T12:45:33.308Z,4484.00
2018-07-16T12:46:33.311Z,4564.00
2018-07-16T12:47:33.281Z,4656.00
2018-07-16T12:48:33.272Z,4744.00
2018-07-16T12:49:33.263Z,4824.00
2018-07-16T12:50:33.252Z,4912.00
2018-07-16T12:51:33.256Z,4996.00
2018-07-16T12:52:33.229Z,5084.00
2018-07-16T12:53:33.213Z,5172.00
2018-07-16T12:54:33.228Z,5276.00
2018-07-16T12:55:33.232Z,5348.00
2018-07-16T12:56:33.207Z,5480.00
2018-07-16T12:57:33.168Z,5576.00
2018-07-16T12:58:33.166Z,5664.00
2018-07-16T12:59:33.151Z,5752.00
2018-07-16T13:00:33.137Z,5840.00
2018-07-16T13:01:33.138Z,5916.00
2018-07-16T13:02:33.118Z,6000.00
2018-07-16T13:03:33.103Z,6072.00
2018-07-16T13:04:33.095Z,6152.00
2018-07-16T13:05:33.079Z,6232.00
2018-07-16T13:06:33.077Z,6316.00
2018-07-16T13:07:33.055Z,6376.00
2018-07-16T13:08:33.045Z,6420.00
2018-07-16T13:09:33.049Z,6440.00
2018-07-16T13:10:33.022Z,6452.00
2018-07-16T13:11:33.025Z,6460.00
2018-07-16T13:12:33.000Z,6472.00
2018-07-16T13:13:32.994Z,6488.00
2018-07-16T13:14:32.977Z,6468.00
2018-07-16T13:15:32.972Z,6460.00
2018-07-16T13:16:32.970Z,6452.00
2018-07-16T13:17:32.947Z,6428.00
2018-07-16T13:18:32.935Z,6396.00
2018-07-16T13:19:32.923Z,6344.00
2018-07-16T13:20:32.910Z,6300.00
2018-07-16T13:21:32.912Z,6248.00
2018-07-16T13:22:32.891Z,6184.00
2018-07-16T13:23:32.882Z,6116.00
2018-07-16T13:24:32.868Z,6056.00
2018-07-16T13:25:32.862Z,5988.00
2018-07-16T13:26:32.885Z,5912.00
2018-07-16T13:27:32.834Z,5828.00
2018-07-16T13:28:32.935Z,5740.00
2018-07-16T13:29:32.810Z,5656.00
2018-07-16T13:30:32.797Z,5572.00
2018-07-16T13:31:32.804Z,5496.00
2018-07-16T13:32:32.779Z,5408.00
2018-07-16T13:33:32.766Z,5324.00
2018-07-16T13:34:32.756Z,5232.00
2018-07-16T13:35:32.751Z,5136.00
2018-07-16T13:36:32.745Z,5024.00
2018-07-16T13:37:32.721Z,4928.00
2018-07-16T13:38:32.733Z,4848.00
2018-07-16T13:39:32.698Z,4776.00
2018-07-16T13:40:32.691Z,4712.00
2018-07-16T13:41:32.695Z,4680.00
2018-07-16T13:42:32.668Z,4656.00
2018-07-16T13:43:32.657Z,4640.00
2018-07-16T13:44:32.651Z,4632.00
2018-07-16T13:45:32.636Z,4620.00
2018-07-16T13:46:32.673Z,4612.00
2018-07-16T13:47:32.613Z,4588.00
2018-07-16T13:48:32.604Z,4552.00
2018-07-16T13:49:32.593Z,4512.00
2018-07-16T13:50:32.580Z,4484.00
2018-07-16T13:51:32.582Z,4440.00
2018-07-16T13:52:32.554Z,4400.00
2018-07-16T13:53:32.546Z,4360.00
2018-07-16T13:54:32.533Z,4316.00
2018-07-16T13:55:32.521Z,4284.00
2018-07-16T13:56:32.524Z,4248.00
2018-07-16T13:57:32.498Z,4216.00
2018-07-16T13:58:32.497Z,4188.00
2018-07-16T13:59:32.478Z,4164.00
2018-07-16T14:00:32.514Z,4140.00
2018-07-16T14:01:32.480Z,4120.00
2018-07-16T14:02:32.447Z,4092.00
2018-07-16T14:03:32.438Z,4076.00
2018-07-16T14:04:32.428Z,4052.00
2018-07-16T14:05:32.413Z,4032.00
2018-07-16T14:06:32.401Z,4024.00
2018-07-16T14:07:32.402Z,4020.00
2018-07-16T14:08:32.376Z,4012.00
2018-07-16T14:09:32.366Z,4004.00
2018-07-16T14:10:32.356Z,4000.00
2018-07-16T14:11:32.346Z,3992.00
2018-07-16T14:12:32.350Z,4004.00
2018-07-16T14:13:32.324Z,4016.00
2018-07-16T14:14:32.316Z,4040.00
2018-07-16T14:15:32.315Z,4076.00
2018-07-16T14:16:32.294Z,4120.00
2018-07-16T14:17:32.294Z,4156.00
2018-07-16T14:18:32.270Z,4200.00
2018-07-16T14:19:32.256Z,4248.00
2018-07-16T14:20:32.249Z,4308.00
2018-07-16T14:21:32.242Z,4376.00
2018-07-16T14:22:32.238Z,4448.00
2018-07-16T14:23:32.231Z,4524.00
2018-07-16T14:24:32.206Z,4616.00
2018-07-16T14:25:32.194Z,4708.00
2018-07-16T14:26:32.181Z,4812.00
2018-07-16T14:27:32.183Z,4912.00
2018-07-16T14:28:32.160Z,5012.00
2018-07-16T14:29:32.148Z,5120.00
2018-07-16T14:30:32.138Z,5224.00
2018-07-16T14:31:32.129Z,5328.00
2018-07-16T14:32:32.129Z,5420.00
2018-07-16T14:33:32.112Z,5500.00
2018-07-16T14:34:32.099Z,5576.00
2018-07-16T14:35:32.087Z,5636.00
2018-07-16T14:36:32.077Z,5688.00
2018-07-16T14:37:32.073Z,5716.00
2018-07-16T14:38:32.053Z,5732.00
2018-07-16T14:39:32.268Z,5724.00
2018-07-16T14:40:32.028Z,5716.00
2018-07-16T14:41:32.026Z,5700.00
2018-07-16T14:42:32.044Z,5684.00
2018-07-16T14:43:32.049Z,5664.00
2018-07-16T14:44:31.983Z,5640.00
2018-07-16T14:45:31.975Z,5608.00
2018-07-16T14:46:31.960Z,5580.00
2018-07-16T14:47:32.010Z,5564.00
2018-07-16T14:48:31.951Z,5552.00
2018-07-16T14:49:31.929Z,5548.00
2018-07-16T14:50:32.006Z,5560.00
2018-07-16T14:51:31.908Z,5568.00
2018-07-16T14:52:31.903Z,5576.00
2018-07-16T14:53:31.892Z,5592.00
2018-07-16T14:54:31.870Z,5620.00
2018-07-16T14:55:31.859Z,5652.00
2018-07-16T14:56:31.850Z,5708.00
2018-07-16T14:57:31.851Z,5764.00
2018-07-16T14:58:31.829Z,5840.00
2018-07-16T14:59:31.817Z,5928.00
2018-07-16T15:00:31.804Z,6008.00
2018-07-16T15:01:31.793Z,6080.00
2018-07-16T15:02:31.795Z,6144.00
2018-07-16T15:03:31.774Z,6208.00
2018-07-16T15:04:31.768Z,6260.00
2018-07-16T15:05:31.762Z,6328.00
2018-07-16T15:06:31.741Z,6408.00
2018-07-16T15:07:31.744Z,6496.00
2018-07-16T15:08:31.781Z,6576.00
2018-07-16T15:09:31.707Z,5908.00
2018-07-16T15:10:31.712Z,6000.00
2018-07-16T15:11:31.689Z,6104.00
2018-07-16T15:12:31.682Z,6236.00
2018-07-16T15:13:31.664Z,6372.00
2018-07-16T15:14:31.651Z,6492.00
2018-07-16T15:15:31.648Z,6628.00
2018-07-16T15:16:31.631Z,6752.00
2018-07-16T15:17:31.628Z,6872.00
2018-07-16T15:18:31.613Z,6984.00
2018-07-16T15:19:31.595Z,7088.00
2018-07-16T15:20:31.739Z,7180.00
2018-07-16T15:21:31.760Z,7252.00
2018-07-16T15:22:31.569Z,7324.00
2018-07-16T15:23:31.549Z,7376.00
2018-07-16T15:24:31.539Z,7424.00
2018-07-16T15:25:31.527Z,7460.00
2018-07-16T15:26:31.514Z,7500.00
2018-07-16T15:27:31.512Z,7520.00
2018-07-16T15:28:31.515Z,7568.00
2018-07-16T15:29:31.539Z,7604.00
2018-07-16T15:30:31.469Z,7660.00
2018-07-16T15:31:31.457Z,7704.00
2018-07-16T15:32:31.456Z,7744.00
2018-07-16T15:33:31.434Z,7816.00
2018-07-16T15:34:31.426Z,7880.00
2018-07-16T15:35:31.419Z,7948.00
2018-07-16T15:36:31.403Z,7976.00
2018-07-16T15:37:31.413Z,7988.00
2018-07-16T15:38:31.385Z,8008.00
2018-07-16T15:39:31.367Z,8016.00
2018-07-16T15:40:31.388Z,8028.00
2018-07-16T15:41:31.451Z,8040.00
2018-07-16T15:42:31.331Z,8056.00
2018-07-16T15:43:31.334Z,8056.00
2018-07-16T15:44:31.311Z,8040.00
2018-07-16T15:45:31.304Z,8020.00
2018-07-16T15:46:31.285Z,8000.00
2018-07-16T15:47:31.288Z,7976.00
2018-07-16T15:48:31.280Z,7940.00
2018-07-16T15:49:31.255Z,7912.00
2018-07-16T15:50:31.245Z,7880.00
2018-07-16T15:51:31.231Z,7880.00
2018-07-16T15:52:31.222Z,7888.00
2018-07-16T15:53:31.229Z,7892.00
2018-07-16T15:54:31.193Z,7896.00
2018-07-16T15:55:31.183Z,7908.00
2018-07-16T15:56:31.171Z,7932.00
2018-07-16T15:57:31.159Z,7936.00